EST,Max TemperatureF,Mean TemperatureF,Min TemperatureF,Max Dew PointF,MeanDew PointF,Min DewpointF,Max Humidity, Mean Humidity, Min Humidity, Max Sea Level PressureIn, Mean Sea Level PressureIn, Min Sea Level PressureIn, Max VisibilityMiles, Mean VisibilityMiles, Min VisibilityMiles, Max Wind SpeedMPH, Mean Wind SpeedMPH, Max Gust SpeedMPH,PrecipitationIn, CloudCover, Events, WindDirDegrees
2014-2-1,39,36,32,34,26,21,89,70,47,30.36,30.25,30.07,10,10,9,10,6,,0.00,1,,168
2014-2-2,44,40,35,43,39,33,100,94,86,30.04,29.94,29.91,10,4,0,17,10,23,0.10,7,Fog-Rain,247
2014-2-3,39,36,32,37,33,30,97,90,79,30.23,30.12,30.04,10,6,0,17,11,21,0.67,8,Fog-Rain-Snow,19
2014-2-4,35,30,24,29,25,21,91,78,64,30.43,30.36,30.24,10,10,10,15,9,,0.00,1,,351
2014-2-5,37,32,28,36,31,21,97,89,72,30.30,29.92,29.51,10,5,2,23,11,36,0.66,8,Rain-Snow,59
2014-2-6,32,29,26,29,23,20,93,78,66,30.23,30.11,29.85,10,9,2,20,14,28,0.00,7,Snow,339
2014-2-7,32,28,25,21,15,9,72,58,49,30.28,30.22,30.18,10,10,10,16,11,22,0.00,1,,283
2014-2-8,30,26,23,19,14,8,69,56,43,30.30,30.22,30.11,10,10,10,13,9,,0.00,3,,277
2014-2-9,35,30,25,27,21,13,86,68,51,30.10,30.03,29.96,10,8,2,13,6,,0.00,6,Snow,290
2014-2-10,30,28,24,27,18,7,93,67,46,30.19,30.00,29.90,10,9,2,22,9,30,0.00,5,Snow,311
2014-2-11,26,24,21,8,6,2,53,47,37,30.37,30.28,30.19,10,10,10,17,11,23,0.00,0,,315
2014-2-12,30,24,17,21,12,7,72,61,49,30.51,30.46,30.38,10,10,10,20,13,29,0.00,6,,23
2014-2-13,50,40,30,48,39,21,100,90,67,30.39,29.55,28.95,10,4,0,29,14,48,1.40,8,Fog-Rain,100
2014-2-14,43,39,35,43,33,26,100,81,60,29.76,29.14,28.81,10,7,2,41,24,54,0.03,6,Rain-Snow,233
2014-2-15,39,34,28,34,30,25,96,84,65,29.86,29.54,29.20,10,5,0,39,14,52,0.63,6,Fog-Rain-Snow,11
2014-2-16,32,28,24,29,20,16,93,73,59,29.94,29.72,29.26,10,7,0,34,23,52,0.00,5,Fog-Snow,294
2014-2-17,28,24,19,18,7,1,74,50,34,30.36,30.17,29.93,10,10,4,22,15,32,0.00,1,Snow,322
2014-2-18,41,25,9,37,26,1,93,79,61,30.35,30.05,29.82,10,9,4,30,14,37,0.11,5,Rain-Snow,204
2014-2-19,44,34,25,43,33,19,93,85,73,30.11,29.87,29.67,10,6,1,23,13,31,0.19,4,Rain,219
2014-2-20,50,42,35,35,32,19,93,78,29,30.25,30.11,29.82,10,8,5,15,11,21,0.08,3,Rain,267
2014-2-21,51,44,37,50,43,35,100,95,87,30.15,29.91,29.77,10,2,0,25,13,33,0.62,8,Fog-Rain-Thunderstorm,158
2014-2-22,46,40,33,39,34,31,100,82,56,30.04,29.98,29.89,10,8,2,17,10,24,0.00,0,,243
2014-2-23,46,42,37,40,37,34,89,84,76,30.05,29.94,29.79,10,10,6,14,10,,0.05,1,Rain,225
2014-2-24,39,33,26,36,22,5,92,61,34,29.95,29.80,29.72,10,10,6,24,11,33,0.04,4,Rain,280
2014-2-25,28,26,23,15,10,6,56,49,39,30.01,29.95,29.88,10,10,9,23,16,36,0.00,3,,287
2014-2-26,30,26,21,25,14,2,86,63,42,29.96,29.86,29.78,10,8,0,20,10,24,0.00,4,Snow,283
2014-2-27,32,24,16,25,16,0,86,66,37,29.87,29.71,29.61,10,6,1,28,11,33,0.00,5,Snow,260
2014-2-28,24,18,12,12,-1,-9,68,45,28,30.45,30.23,29.90,10,10,8,23,15,38,0.00,0,Snow,302